Blacklow Brow, United Kingdom
Current Conditions -  °F | °C
As of 8:20 PM on Wednesday 28 Jan 2015 (Local Time) from EGGP Reporting Station
Rain Showers Rain Showers  
Wind Chill: 30°   Ceiling: Unl
Heat Index: 41°   Visibility: 6mi
Dew Point: 32°   Wind: 28mph
Humidity: 70%   Direction: 260°W
Pressure: 29.41"   Gusts: 43mph
Location:  53.4°N, 2.83°W
Report Text: EGGP 282020Z 26024G37KT 9999 VCSH FEW026CB SCT047 05/00 Q0996
Loading
Personal Weather Stations






























Interactive Weather Map New forecast layout! Learn more

10-Day Weather Forecast

Advertisements
Track Severe Weather on mobile